Terminal Aerodrome Forecast
Issued by NWS St Louis, MO

Home | Current Version | Previous Version | Text Only | Print | Product List | Glossary On
Versions: 1 2 3 4 5 6 7 8 9 10 11 12 13 14 15 16 17 18 19 20 21 22 23 24 25 26 27 28 29 30
000
FTUS43 KLSX 280200 AAA
TAFSTL
TAF AMD
KSTL 280258Z 2803/2906 11005KT P6SM OVC120
     FM281000 15009KT P6SM SCT250
     FM281500 18012G18KT P6SM SCT250
     FM282300 18010KT P6SM BKN250=

USA.gov is the U.S. government's official web portal to all federal, state and local government web resources and services.